Time;durP1;ratioP1;P1;durP2;ratioP2;P2;SDS_P1;SDS_P2;PMS_P1;PMS_P2;Temp;Humidity;BMP_temperature;BMP_pressure;BME280_temperature;BME280_humidity;BME280_pressure;Samples;Min_cycle;Max_cycle;Signal;HPM_P1;HPM_P2
2022/07/16 00:02:43;;;;;;;1.08;0.30;;;15.70;99.90;;;;;;4993998;28;20074;-76
2022/07/16 00:05:09;;;;;;;1.00;0.30;;;15.70;99.90;;;;;;4995044;28;20034;-76
2022/07/16 00:07:35;;;;;;;2.05;0.50;;;15.70;99.90;;;;;;4998049;28;20381;-76
2022/07/16 00:10:01;;;;;;;1.98;0.50;;;15.60;99.90;;;;;;4996883;28;20042;-76
2022/07/16 00:12:26;;;;;;;3.47;0.50;;;15.60;99.90;;;;;;4996749;28;20052;-77
2022/07/16 00:14:52;;;;;;;1.30;0.35;;;15.50;99.90;;;;;;4982150;28;20053;-76
2022/07/16 00:17:18;;;;;;;3.90;0.50;;;15.50;99.90;;;;;;4987306;28;20049;-76
2022/07/16 00:19:44;;;;;;;1.05;0.40;;;15.40;99.90;;;;;;5016672;22;20049;-78
2022/07/16 00:22:10;;;;;;;1.88;0.57;;;15.30;99.90;;;;;;5023528;28;20040;-77
2022/07/16 00:24:36;;;;;;;3.10;0.55;;;15.40;99.90;;;;;;5014008;28;20199;-78
2022/07/16 00:27:03;;;;;;;2.35;0.43;;;15.30;99.90;;;;;;5016762;28;20035;-78
2022/07/16 00:29:31;;;;;;;1.33;0.60;;;15.30;99.90;;;;;;5024856;28;20045;-77
2022/07/16 00:32:05;;;;;;;0.80;0.30;;;15.40;99.90;;;;;;4996300;28;20113;-78
2022/07/16 00:34:31;;;;;;;2.42;1.10;;;15.40;99.90;;;;;;5002177;28;20084;-77
2022/07/16 00:37:02;;;;;;;1.75;0.77;;;15.50;99.90;;;;;;4984084;28;20066;-77
2022/07/16 00:39:28;;;;;;;0.93;0.40;;;15.50;99.90;;;;;;4992743;28;20046;-78
2022/07/16 00:41:53;;;;;;;1.40;0.40;;;15.60;99.90;;;;;;5005167;28;20284;-78
2022/07/16 00:44:20;;;;;;;3.03;0.50;;;15.60;99.90;;;;;;5002136;28;20041;-77
2022/07/16 00:46:47;;;;;;;1.55;0.40;;;15.70;99.90;;;;;;5006183;28;20125;-78
2022/07/16 00:49:19;;;;;;;4.72;0.55;;;15.70;99.90;;;;;;4996495;28;20074;-78
2022/07/16 00:51:47;;;;;;;1.35;0.32;;;15.70;99.90;;;;;;5002533;28;20068;-78
2022/07/16 00:54:25;;;;;;;1.92;0.88;;;15.70;99.90;;;;;;4994838;28;20072;-78
2022/07/16 00:56:51;;;;;;;1.88;0.65;;;15.80;99.90;;;;;;4989263;28;20038;-77
2022/07/16 00:59:17;;;;;;;2.53;0.70;;;15.80;99.90;;;;;;4990610;28;20052;-78
2022/07/16 01:01:42;;;;;;;2.33;0.40;;;15.80;99.90;;;;;;5018364;28;20041;-78
2022/07/16 01:04:10;;;;;;;3.13;0.30;;;15.80;99.90;;;;;;5003572;28;20507;-78
2022/07/16 01:06:36;;;;;;;3.03;0.80;;;15.80;99.90;;;;;;5004859;28;20046;-78
2022/07/16 01:09:02;;;;;;;1.02;0.30;;;15.80;99.90;;;;;;4983691;28;20041;-78
2022/07/16 01:11:30;;;;;;;0.88;0.32;;;15.80;99.90;;;;;;4997114;28;20043;-78
2022/07/16 01:13:56;;;;;;;1.20;0.40;;;15.80;99.90;;;;;;4996601;28;20061;-78
2022/07/16 01:16:21;;;;;;;1.40;0.40;;;15.80;99.90;;;;;;4988407;28;20456;-78
2022/07/16 01:18:47;;;;;;;2.22;0.50;;;15.80;99.90;;;;;;5003020;28;20042;-83
2022/07/16 01:21:14;;;;;;;1.55;0.40;;;15.90;99.90;;;;;;4999571;28;20519;-80
2022/07/16 01:23:42;;;;;;;1.13;0.50;;;15.80;99.90;;;;;;5002705;28;20064;-80
2022/07/16 01:26:08;;;;;;;4.90;0.90;;;15.80;99.90;;;;;;5008884;28;20041;-80
2022/07/16 01:28:33;;;;;;;1.42;0.95;;;15.70;99.90;;;;;;4987759;28;20038;-79
2022/07/16 01:30:59;;;;;;;3.50;0.90;;;15.70;99.90;;;;;;5002418;28;20050;-80
2022/07/16 01:33:35;;;;;;;2.88;1.23;;;15.60;99.90;;;;;;4999037;28;20473;-81
2022/07/16 01:36:09;;;;;;;2.35;1.45;;;15.50;99.90;;;;;;5005756;28;20061;-82
2022/07/16 01:38:41;;;;;;;3.33;2.25;;;15.50;99.90;;;;;;4996951;28;20476;-82
2022/07/16 01:41:06;;;;;;;3.53;1.75;;;15.50;99.90;;;;;;5005211;28;20047;-83
2022/07/16 01:43:32;;;;;;;4.63;1.85;;;15.40;99.90;;;;;;4985232;28;20472;-83
2022/07/16 01:45:58;;;;;;;2.08;1.73;;;15.40;99.90;;;;;;5002692;28;20038;-83
2022/07/16 01:48:25;;;;;;;5.80;2.38;;;15.40;99.90;;;;;;5006902;28;20067;-82
2022/07/16 01:50:52;;;;;;;6.63;2.92;;;15.30;99.90;;;;;;5005869;28;20485;-84
2022/07/16 01:53:18;;;;;;;3.95;2.08;;;15.30;99.90;;;;;;4997962;28;20553;-84
2022/07/16 01:55:44;;;;;;;4.05;2.53;;;15.30;99.90;;;;;;5000016;28;20038;-83
2022/07/16 01:58:11;;;;;;;3.10;2.15;;;15.30;99.90;;;;;;5004998;28;20492;-84
2022/07/16 02:00:38;;;;;;;5.93;3.20;;;15.20;99.90;;;;;;5002504;28;20049;-83
2022/07/16 02:03:05;;;;;;;4.72;2.58;;;15.20;99.90;;;;;;4998819;28;20380;-84
2022/07/16 02:05:31;;;;;;;5.13;2.42;;;15.10;99.90;;;;;;4998316;28;20049;-84
2022/07/16 02:07:56;;;;;;;4.18;2.28;;;15.10;99.90;;;;;;4987353;28;20029;-80
2022/07/16 02:10:22;;;;;;;3.22;1.80;;;15.10;99.90;;;;;;5008442;28;20041;-81
2022/07/16 02:12:48;;;;;;;4.28;2.92;;;15.10;99.90;;;;;;5007630;28;20030;-81
2022/07/16 02:15:14;;;;;;;2.88;2.03;;;15.10;99.90;;;;;;5005459;28;20030;-81
2022/07/16 02:17:40;;;;;;;5.32;2.22;;;15.10;99.90;;;;;;5011346;28;20059;-80
2022/07/16 02:20:07;;;;;;;2.95;2.25;;;15.10;99.90;;;;;;5011287;28;20039;-81
2022/07/16 02:22:33;;;;;;;2.63;1.35;;;15.10;99.90;;;;;;5004467;28;20045;-81
2022/07/16 02:24:59;;;;;;;2.97;1.42;;;15.00;99.90;;;;;;5020857;28;20083;-82
2022/07/16 02:27:24;;;;;;;3.83;1.58;;;15.00;99.90;;;;;;5007299;28;20038;-82
2022/07/16 02:29:50;;;;;;;3.50;1.65;;;15.00;99.90;;;;;;5003611;28;20030;-82
2022/07/16 02:32:16;;;;;;;2.33;1.23;;;15.00;99.90;;;;;;4999584;28;20073;-82
2022/07/16 02:34:42;;;;;;;2.63;1.02;;;15.00;99.90;;;;;;4981491;28;20620;-82
2022/07/16 02:37:07;;;;;;;2.50;1.38;;;15.00;99.90;;;;;;4994541;28;20133;-82
2022/07/16 02:39:33;;;;;;;3.05;1.85;;;14.90;99.90;;;;;;4996930;28;20049;-82
2022/07/16 02:41:59;;;;;;;3.60;1.05;;;14.90;99.90;;;;;;5003240;28;20037;-82
2022/07/16 02:44:25;;;;;;;2.22;1.27;;;14.90;99.90;;;;;;4998834;28;20080;-82
2022/07/16 02:46:50;;;;;;;5.00;1.00;;;14.90;99.90;;;;;;5003802;28;20065;-82
2022/07/16 02:49:16;;;;;;;5.22;1.60;;;14.90;99.90;;;;;;4985423;28;20113;-83
2022/07/16 02:51:42;;;;;;;5.25;1.92;;;14.90;99.90;;;;;;4996892;28;20033;-82
2022/07/16 02:54:07;;;;;;;3.75;1.30;;;14.90;99.90;;;;;;4987937;28;20052;-83
2022/07/16 02:56:33;;;;;;;4.03;1.95;;;14.90;99.90;;;;;;4985846;28;20052;-80
2022/07/16 02:58:59;;;;;;;3.95;1.25;;;14.80;99.90;;;;;;4993878;28;20096;-80
2022/07/16 03:01:24;;;;;;;2.70;0.68;;;14.90;99.90;;;;;;5025946;28;20038;-80
2022/07/16 03:03:50;;;;;;;2.58;0.90;;;14.80;99.90;;;;;;4984761;28;20034;-82
2022/07/16 03:06:15;;;;;;;4.35;1.25;;;14.90;99.90;;;;;;4984535;28;20339;-82
2022/07/16 03:08:41;;;;;;;2.28;0.73;;;14.80;99.90;;;;;;5002482;28;20038;-83
2022/07/16 03:11:07;;;;;;;2.67;1.00;;;14.80;99.90;;;;;;4992424;28;20030;-81
2022/07/16 03:13:32;;;;;;;3.28;1.40;;;14.80;99.90;;;;;;4994486;28;20068;-81
2022/07/16 03:15:58;;;;;;;3.65;1.33;;;14.90;99.90;;;;;;5015902;28;20072;-80
2022/07/16 03:18:23;;;;;;;3.33;1.23;;;14.80;99.90;;;;;;5012876;28;20037;-80
2022/07/16 03:20:49;;;;;;;3.60;0.80;;;14.80;99.90;;;;;;5015258;28;20056;-82
2022/07/16 03:23:14;;;;;;;4.95;1.20;;;14.80;99.90;;;;;;5008523;28;20503;-81
2022/07/16 03:25:41;;;;;;;4.25;1.00;;;14.70;99.90;;;;;;5008173;28;20037;-81
2022/07/16 03:28:08;;;;;;;4.88;0.98;;;14.70;99.90;;;;;;5010333;28;20042;-82
2022/07/16 03:30:34;;;;;;;5.07;1.35;;;14.60;99.90;;;;;;5001058;28;20094;-81
2022/07/16 03:33:00;;;;;;;2.67;0.90;;;14.60;99.90;;;;;;5013332;28;20037;-81
2022/07/16 03:35:25;;;;;;;3.35;0.95;;;14.50;99.90;;;;;;5008379;28;20044;-81
2022/07/16 03:40:35;;;;;;;3.55;1.30;;;14.40;99.90;;;;;;4997128;28;20049;-83
2022/07/16 03:43:01;;;;;;;4.95;1.02;;;14.40;99.90;;;;;;5002388;28;20034;-84
2022/07/16 03:45:26;;;;;;;4.93;1.40;;;14.30;99.90;;;;;;4998286;28;20041;-83
2022/07/16 03:47:52;;;;;;;3.80;0.93;;;14.30;99.90;;;;;;4989919;28;20041;-82
2022/07/16 03:50:18;;;;;;;4.90;1.25;;;14.30;99.90;;;;;;4999693;28;20563;-83
2022/07/16 03:52:44;;;;;;;4.72;1.02;;;14.20;99.90;;;;;;4994460;28;20034;-83
2022/07/16 03:55:10;;;;;;;2.85;0.95;;;14.20;99.90;;;;;;4971546;28;20068;-85
2022/07/16 03:57:36;;;;;;;2.67;1.08;;;14.10;99.90;;;;;;4992233;28;20042;-84
2022/07/16 04:00:02;;;;;;;3.65;1.08;;;14.10;99.90;;;;;;5003131;28;20040;-81
2022/07/16 04:02:28;;;;;;;2.47;1.25;;;14.00;99.90;;;;;;5001283;28;20041;-82
2022/07/16 04:04:53;;;;;;;4.43;1.20;;;14.00;99.90;;;;;;5006113;28;20042;-82
2022/07/16 04:07:19;;;;;;;3.20;0.60;;;13.90;99.90;;;;;;4997790;28;20042;-84
2022/07/16 04:09:44;;;;;;;6.05;0.90;;;13.90;99.90;;;;;;4997300;28;20038;-84
2022/07/16 04:12:10;;;;;;;3.03;0.88;;;13.90;99.90;;;;;;5002806;28;20044;-83
2022/07/16 04:14:35;;;;;;;3.05;1.02;;;13.90;99.90;;;;;;4983286;28;20038;-83
2022/07/16 04:17:01;;;;;;;2.67;1.02;;;13.90;99.90;;;;;;4988440;28;20553;-85
2022/07/16 04:19:26;;;;;;;3.40;1.10;;;13.90;99.90;;;;;;4986947;28;20507;-83
2022/07/16 04:21:52;;;;;;;3.13;1.02;;;13.80;99.90;;;;;;5013319;28;20042;-83
2022/07/16 04:24:17;;;;;;;3.08;0.75;;;13.90;99.90;;;;;;4989379;28;20045;-84
2022/07/16 04:26:43;;;;;;;3.10;1.02;;;13.90;99.90;;;;;;4973457;28;20045;-85
2022/07/16 04:29:08;;;;;;;3.80;0.60;;;14.00;99.90;;;;;;4999245;28;20064;-84
2022/07/16 04:31:34;;;;;;;4.63;0.73;;;14.00;99.90;;;;;;4996736;28;20034;-86
2022/07/16 04:34:00;;;;;;;4.40;1.00;;;14.10;99.90;;;;;;4978158;28;20034;-85
2022/07/16 04:36:25;;;;;;;5.47;0.80;;;14.00;99.90;;;;;;4995441;28;20484;-84
2022/07/16 04:38:51;;;;;;;4.18;0.98;;;14.10;99.90;;;;;;4980517;28;20038;-84
2022/07/16 04:41:16;;;;;;;2.70;0.85;;;14.10;99.90;;;;;;4991504;28;20046;-84
2022/07/16 04:43:42;;;;;;;6.57;1.38;;;14.00;99.90;;;;;;4992151;28;20046;-85
2022/07/16 04:46:07;;;;;;;3.70;0.60;;;14.00;99.90;;;;;;4991799;28;20064;-86
2022/07/16 04:48:33;;;;;;;3.75;1.10;;;14.10;99.90;;;;;;5005372;28;20041;-86
2022/07/16 04:50:58;;;;;;;5.50;1.50;;;14.10;99.90;;;;;;4993463;28;20136;-84
2022/07/16 04:53:24;;;;;;;6.35;0.80;;;14.20;99.90;;;;;;4991611;28;20045;-85
2022/07/16 04:55:50;;;;;;;5.40;0.70;;;14.10;99.90;;;;;;4994107;28;20038;-85
2022/07/16 04:58:15;;;;;;;4.13;0.88;;;14.20;99.90;;;;;;4998088;28;20025;-84
2022/07/16 05:00:41;;;;;;;4.45;0.98;;;14.20;99.90;;;;;;4987935;28;20484;-84
2022/07/16 05:03:07;;;;;;;4.78;1.35;;;14.20;99.90;;;;;;4991706;28;20029;-85
2022/07/16 05:05:37;;;;;;;3.42;1.15;;;14.30;99.90;;;;;;4991664;28;20045;-86
2022/07/16 05:08:06;;;;;;;4.05;0.70;;;14.30;99.90;;;;;;4985033;28;20053;-85
2022/07/16 05:10:32;;;;;;;3.42;0.60;;;14.40;99.90;;;;;;4996532;28;20045;-85
2022/07/16 05:12:59;;;;;;;5.63;0.77;;;14.40;99.90;;;;;;5004300;28;20100;-85
2022/07/16 05:15:25;;;;;;;1.58;0.45;;;14.50;99.90;;;;;;5003342;28;20037;-85
2022/07/16 05:17:51;;;;;;;3.83;0.70;;;14.60;99.90;;;;;;4998128;28;20030;-85
2022/07/16 05:20:17;;;;;;;2.53;0.80;;;14.70;99.90;;;;;;4995744;28;20033;-85
2022/07/16 05:22:42;;;;;;;3.53;0.73;;;14.90;99.90;;;;;;5000678;28;20455;-85
2022/07/16 05:25:09;;;;;;;3.47;0.80;;;15.00;99.90;;;;;;5000989;28;20048;-85
2022/07/16 05:27:35;;;;;;;5.28;1.85;;;15.10;99.90;;;;;;4990233;28;20049;-82
2022/07/16 05:30:02;;;;;;;4.18;0.50;;;15.30;99.90;;;;;;5006218;28;20197;-83
2022/07/16 05:32:28;;;;;;;5.28;1.02;;;15.50;99.90;;;;;;4996393;28;20060;-82
2022/07/16 05:34:53;;;;;;;3.17;0.50;;;15.60;99.90;;;;;;4990362;28;20035;-84
2022/07/16 05:37:19;;;;;;;5.45;1.20;;;15.70;99.90;;;;;;4989945;28;20068;-84
2022/07/16 05:39:44;;;;;;;3.40;0.52;;;15.70;99.90;;;;;;4992033;28;20041;-84
2022/07/16 05:42:10;;;;;;;2.05;0.40;;;15.60;99.90;;;;;;5006838;28;20463;-83
2022/07/16 05:44:36;;;;;;;3.65;0.90;;;15.60;99.90;;;;;;5007943;28;20041;-84
2022/07/16 05:47:01;;;;;;;3.33;0.30;;;15.60;99.90;;;;;;4996176;28;20041;-83
2022/07/16 05:49:27;;;;;;;3.05;0.65;;;15.50;99.90;;;;;;5006381;28;20045;-84
2022/07/16 05:51:52;;;;;;;5.60;1.15;;;15.50;99.90;;;;;;5008963;28;20033;-82
2022/07/16 05:54:18;;;;;;;2.83;0.63;;;15.60;99.90;;;;;;4999402;28;20034;-81
2022/07/16 05:56:43;;;;;;;4.47;0.82;;;15.60;99.90;;;;;;5014220;28;20070;-81
2022/07/16 05:59:09;;;;;;;2.40;0.50;;;15.60;99.90;;;;;;5013046;28;20064;-82
2022/07/16 06:01:35;;;;;;;5.07;0.63;;;15.60;99.90;;;;;;5008433;28;20136;-83
2022/07/16 06:04:01;;;;;;;4.10;0.50;;;15.60;99.90;;;;;;5014277;28;20487;-82
2022/07/16 06:06:27;;;;;;;2.88;0.45;;;15.50;99.90;;;;;;5005118;28;20041;-82
2022/07/16 06:08:53;;;;;;;3.05;0.50;;;15.50;99.90;;;;;;5005786;28;20042;-83
2022/07/16 06:11:18;;;;;;;4.78;0.57;;;15.50;99.90;;;;;;5011260;28;20037;-83
2022/07/16 06:13:44;;;;;;;3.92;0.40;;;15.60;99.90;;;;;;4990932;28;20065;-82
2022/07/16 06:16:09;;;;;;;3.85;0.50;;;15.60;99.90;;;;;;4984706;28;20080;-82
2022/07/16 06:18:35;;;;;;;6.03;0.43;;;15.70;99.90;;;;;;5003376;28;20069;-82
2022/07/16 06:21:01;;;;;;;4.05;0.45;;;15.70;99.90;;;;;;5000429;28;20054;-83
2022/07/16 06:23:27;;;;;;;5.22;0.52;;;15.80;99.90;;;;;;4999010;28;20041;-82
2022/07/16 06:25:52;;;;;;;3.53;0.30;;;15.90;99.90;;;;;;5024094;28;20037;-82
2022/07/16 06:28:18;;;;;;;5.28;0.75;;;15.90;99.90;;;;;;5014858;28;20037;-82
2022/07/16 06:30:43;;;;;;;2.65;0.30;;;16.00;99.90;;;;;;5016776;28;20385;-82
2022/07/16 06:33:09;;;;;;;4.55;0.50;;;16.20;99.90;;;;;;5011655;28;20038;-81
2022/07/16 06:35:35;;;;;;;3.72;0.35;;;16.30;99.90;;;;;;5009049;28;20476;-82
2022/07/16 06:38:03;;;;;;;3.35;0.43;;;16.40;99.90;;;;;;5001561;28;20044;-81
2022/07/16 06:40:29;;;;;;;4.80;0.30;;;16.60;99.90;;;;;;4988602;28;20417;-80
2022/07/16 06:42:54;;;;;;;3.50;0.68;;;16.80;99.90;;;;;;5006639;28;20058;-80
2022/07/16 06:45:20;;;;;;;3.38;0.25;;;16.80;99.90;;;;;;4990128;28;20040;-81
2022/07/16 06:47:46;;;;;;;3.03;0.30;;;16.50;99.90;;;;;;4998381;28;20120;-80
2022/07/16 06:50:11;;;;;;;6.15;0.63;;;16.20;99.90;;;;;;4994729;28;20030;-80
2022/07/16 06:52:37;;;;;;;5.57;1.02;;;16.00;99.90;;;;;;4978173;28;20480;-79
2022/07/16 06:55:04;;;;;;;5.78;0.45;;;15.80;99.90;;;;;;4996624;28;20052;-79
2022/07/16 06:57:29;;;;;;;2.90;0.45;;;15.90;99.90;;;;;;4996989;28;20069;-80
2022/07/16 06:59:55;;;;;;;6.00;0.60;;;16.20;99.90;;;;;;4995913;28;20108;-79
2022/07/16 07:02:20;;;;;;;4.05;0.60;;;16.60;99.90;;;;;;4996080;28;20049;-80
2022/07/16 07:04:46;;;;;;;4.63;0.80;;;16.70;99.90;;;;;;4995237;28;20137;-79
2022/07/16 07:07:12;;;;;;;4.25;0.30;;;16.90;99.90;;;;;;5000962;28;20046;-80
2022/07/16 07:09:37;;;;;;;2.97;0.30;;;17.00;99.90;;;;;;5001352;28;20088;-80
2022/07/16 07:12:03;;;;;;;2.75;0.30;;;17.10;99.90;;;;;;5000980;28;20084;-80
2022/07/16 07:14:29;;;;;;;4.45;0.30;;;17.10;99.90;;;;;;5001706;28;20091;-80
2022/07/16 07:16:54;;;;;;;4.07;0.22;;;17.20;99.90;;;;;;5000797;28;20485;-79
2022/07/16 07:19:20;;;;;;;2.45;0.40;;;17.40;99.90;;;;;;5001688;28;20405;-80
2022/07/16 07:21:45;;;;;;;4.07;0.60;;;17.50;99.90;;;;;;4995594;28;20046;-79
2022/07/16 07:24:11;;;;;;;2.67;0.40;;;17.70;99.90;;;;;;4995614;28;20050;-80
2022/07/16 07:26:37;;;;;;;3.17;0.30;;;17.70;99.90;;;;;;4995678;28;20046;-80
2022/07/16 07:29:02;;;;;;;2.70;0.10;;;17.80;99.90;;;;;;4995749;28;20053;-80
2022/07/16 07:31:28;;;;;;;12.38;0.95;;;17.90;99.90;;;;;;4999579;28;20100;-80
2022/07/16 07:33:53;;;;;;;2.03;0.30;;;17.90;99.90;;;;;;4999358;28;20556;-80
2022/07/16 07:36:19;;;;;;;3.13;0.55;;;17.80;98.40;;;;;;5000485;28;20052;-80
2022/07/16 07:38:45;;;;;;;1.05;0.10;;;17.80;98.20;;;;;;4999851;28;20117;-80
2022/07/16 07:41:10;;;;;;;2.45;0.20;;;18.00;98.40;;;;;;4998904;28;20089;-79
2022/07/16 07:43:36;;;;;;;4.32;1.65;;;18.30;97.40;;;;;;4982426;28;20030;-79
2022/07/16 07:46:01;;;;;;;1.50;0.45;;;18.10;96.40;;;;;;5016579;28;20100;-79
2022/07/16 07:48:27;;;;;;;1.35;0.20;;;17.80;96.60;;;;;;4998076;28;20061;-79
2022/07/16 07:50:53;;;;;;;3.25;0.20;;;17.40;97.30;;;;;;4998594;28;20439;-80
2022/07/16 07:53:18;;;;;;;1.08;0.20;;;17.40;97.50;;;;;;4979652;28;20566;-80
2022/07/16 07:55:44;;;;;;;2.17;0.20;;;17.80;97.30;;;;;;4979306;28;20074;-80
2022/07/16 07:58:10;;;;;;;1.40;0.38;;;18.30;97.10;;;;;;5015273;28;20120;-80
2022/07/16 08:00:36;;;;;;;1.73;0.45;;;18.80;94.70;;;;;;4995126;28;20498;-79
2022/07/16 08:03:01;;;;;;;7.60;1.55;;;19.30;94.20;;;;;;4980776;28;20042;-79
2022/07/16 08:05:27;;;;;;;2.92;0.20;;;19.50;92.40;;;;;;4996318;28;20034;-80
2022/07/16 08:07:53;;;;;;;4.55;0.32;;;19.70;91.10;;;;;;4996625;28;20049;-80
2022/07/16 08:10:19;;;;;;;1.30;0.10;;;19.70;89.50;;;;;;4999744;28;20049;-80
2022/07/16 08:12:45;;;;;;;1.85;0.40;;;19.30;86.60;;;;;;4993825;28;20038;-79
2022/07/16 08:15:11;;;;;;;1.58;0.32;;;18.90;86.10;;;;;;4998533;28;20404;-79
2022/07/16 08:17:37;;;;;;;1.67;0.22;;;18.50;87.40;;;;;;4984631;28;20046;-79
2022/07/16 08:20:04;;;;;;;1.27;0.20;;;18.40;89.50;;;;;;4986586;28;20542;-79
2022/07/16 08:22:29;;;;;;;2.35;0.10;;;18.70;87.40;;;;;;4987584;28;20069;-79
2022/07/16 08:27:39;;;;;;;2.33;0.55;;;19.20;86.10;;;;;;5018593;28;20085;-79
2022/07/16 08:30:05;;;;;;;2.63;0.70;;;19.40;85.60;;;;;;5005617;28;20073;-78
2022/07/16 08:32:31;;;;;;;2.22;0.20;;;19.40;84.90;;;;;;4981480;28;20037;-78
2022/07/16 08:34:56;;;;;;;2.80;0.10;;;19.50;84.90;;;;;;5004846;28;20033;-79
2022/07/16 08:37:40;;;;;;;1.55;0.20;;;19.60;83.60;;;;;;4987673;28;20073;-79
2022/07/16 08:40:11;;;;;;;2.00;0.10;;;19.80;81.10;;;;;;5003640;28;20116;-80
2022/07/16 08:42:39;;;;;;;2.63;0.20;;;19.80;82.50;;;;;;5006725;28;20085;-79
2022/07/16 08:45:06;;;;;;;1.83;0.13;;;19.80;83.90;;;;;;5004343;28;20049;-80
2022/07/16 08:47:33;;;;;;;2.38;0.20;;;20.00;84.60;;;;;;5004394;28;20130;-79
2022/07/16 08:50:00;;;;;;;2.03;0.20;;;19.90;84.20;;;;;;5010294;28;20050;-81
2022/07/16 08:52:28;;;;;;;1.33;0.20;;;19.80;84.90;;;;;;4994247;28;20396;-80
2022/07/16 08:54:55;;;;;;;1.73;0.20;;;19.80;84.90;;;;;;5008677;28;20042;-80
2022/07/16 08:57:22;;;;;;;2.10;0.30;;;19.60;84.90;;;;;;5009001;28;20049;-80
2022/07/16 08:59:49;;;;;;;3.03;0.30;;;19.50;85.40;;;;;;5010075;28;20033;-80
2022/07/16 09:02:15;;;;;;;1.67;0.13;;;19.50;87.60;;;;;;5025629;28;20052;-79
2022/07/16 09:04:44;;;;;;;3.30;0.77;;;19.50;86.50;;;;;;5006430;28;20037;-80
2022/07/16 09:07:17;;;;;;;2.42;0.32;;;19.40;86.70;;;;;;5004922;28;20146;-79
2022/07/16 09:09:44;;;;;;;3.78;0.20;;;19.70;87.80;;;;;;5008175;28;20505;-79
2022/07/16 09:12:11;;;;;;;3.28;0.20;;;20.10;87.10;;;;;;4986809;28;20053;-80
2022/07/16 09:14:36;;;;;;;15.05;0.63;;;20.10;85.70;;;;;;4987772;28;20037;-81
2022/07/16 09:17:02;;;;;;;2.85;0.30;;;19.90;85.90;;;;;;4998495;28;20049;-80
2022/07/16 09:19:29;;;;;;;2.50;0.10;;;19.80;87.40;;;;;;4999347;28;20420;-80
2022/07/16 09:22:00;;;;;;;6.68;0.63;;;20.00;88.30;;;;;;4999226;28;20429;-81
2022/07/16 09:24:38;;;;;;;4.50;0.20;;;20.50;89.10;;;;;;4992010;28;20523;-80
2022/07/16 09:27:06;;;;;;;1.70;0.45;;;20.80;87.00;;;;;;4999754;28;20045;-81
2022/07/16 09:29:34;;;;;;;5.60;1.15;;;20.60;86.90;;;;;;4999929;28;20511;-79
2022/07/16 09:32:00;;;;;;;2.08;0.30;;;20.40;86.30;;;;;;4982502;28;20046;-80
2022/07/16 09:34:25;;;;;;;3.75;0.35;;;19.90;87.80;;;;;;4991536;28;20034;-80
2022/07/16 09:36:58;;;;;;;2.63;0.28;;;19.60;90.30;;;;;;4999438;28;20037;-80
2022/07/16 09:39:24;;;;;;;2.53;0.30;;;19.40;90.80;;;;;;4999074;28;20113;-80
2022/07/16 09:41:49;;;;;;;2.70;0.38;;;19.50;90.70;;;;;;5000164;28;20120;-80
2022/07/16 09:44:21;;;;;;;2.67;0.25;;;20.00;91.10;;;;;;5000956;28;20040;-80
2022/07/16 09:47:12;;;;;;;1.77;0.20;;;20.70;89.20;;;;;;4982219;28;20046;-81
2022/07/16 09:49:39;;;;;;;1.70;0.95;;;21.00;81.90;;;;;;4986381;28;20054;-81
2022/07/16 09:52:06;;;;;;;3.10;0.20;;;21.00;85.20;;;;;;4992626;28;20041;-81
2022/07/16 09:54:34;;;;;;;3.92;0.20;;;21.30;82.60;;;;;;4985020;28;20097;-80
2022/07/16 09:57:16;;;;;;;3.38;0.30;;;21.40;81.30;;;;;;4981889;28;20058;-80
2022/07/16 09:59:43;;;;;;;3.15;0.43;;;21.50;80.30;;;;;;4982660;28;20102;-81
2022/07/16 10:02:09;;;;;;;3.17;0.93;;;21.40;80.00;;;;;;4984291;28;20046;-82
2022/07/16 10:04:35;;;;;;;6.13;0.60;;;21.30;79.10;;;;;;4993038;28;20519;-82
2022/07/16 10:07:01;;;;;;;3.30;0.55;;;21.30;79.50;;;;;;5001043;28;20049;-81
2022/07/16 10:09:28;;;;;;;2.25;0.47;;;21.70;80.00;;;;;;5000301;28;20060;-82
2022/07/16 10:11:55;;;;;;;0.88;0.10;;;22.00;79.20;;;;;;5000098;28;20046;-80
2022/07/16 10:14:22;;;;;;;2.05;0.10;;;21.80;75.90;;;;;;5001579;28;20587;-81
2022/07/16 10:16:48;;;;;;;4.05;0.25;;;21.30;74.10;;;;;;4987331;28;20125;-81
2022/07/16 10:19:14;;;;;;;2.35;0.20;;;21.10;74.50;;;;;;4994247;28;20038;-82
2022/07/16 10:22:00;;;;;;;2.33;0.20;;;21.00;74.80;;;;;;5000829;28;20069;-81
2022/07/16 10:24:53;;;;;;;2.80;0.30;;;21.40;76.10;;;;;;4999921;28;20042;-81
2022/07/16 10:27:30;;;;;;;4.85;0.20;;;22.20;71.30;;;;;;5000112;28;20102;-82
2022/07/16 10:30:15;;;;;;;3.92;0.20;;;22.90;72.70;;;;;;4999784;28;20046;-81
2022/07/16 10:32:59;;;;;;;;;;;23.30;70.20;;;;;;4999587;28;20038;-81
2022/07/16 10:35:30;;;;;;;6.35;1.70;;;22.80;71.50;;;;;;4998977;28;19953;-82
2022/07/16 10:38:06;;;;;;;8.02;3.25;;;22.40;72.50;;;;;;4999516;28;20121;-82
2022/07/16 10:40:32;;;;;;;1.67;0.22;;;22.00;71.90;;;;;;4998465;28;20172;-82
2022/07/16 10:43:19;;;;;;;4.60;0.20;;;22.10;73.80;;;;;;4999263;28;20077;-81
2022/07/16 10:45:50;;;;;;;2.30;0.20;;;22.50;70.00;;;;;;4999700;28;20072;-82
2022/07/16 10:48:16;;;;;;;2.50;0.20;;;22.40;69.70;;;;;;4999125;28;20107;-82
2022/07/16 10:51:22;;;;;;;2.28;0.30;;;21.90;68.30;;;;;;4995166;28;20046;-81
2022/07/16 10:53:57;;;;;;;1.60;0.32;;;22.00;68.70;;;;;;4980270;28;20137;-82
2022/07/16 10:56:31;;;;;;;1.10;0.20;;;22.00;68.70;;;;;;4997540;28;20160;-80
2022/07/16 10:58:57;;;;;;;3.00;0.28;;;21.50;67.60;;;;;;4998916;28;20397;-82
2022/07/16 11:01:23;;;;;;;1.27;0.15;;;21.50;69.10;;;;;;4973905;28;20041;-81
2022/07/16 11:03:52;;;;;;;2.47;0.30;;;22.00;68.80;;;;;;4990238;28;20030;-82
2022/07/16 11:06:22;;;;;;;3.67;0.45;;;22.60;66.60;;;;;;4981136;28;20046;-82
2022/07/16 11:08:58;;;;;;;2.03;0.25;;;23.30;65.20;;;;;;4997740;28;20038;-83
2022/07/16 11:11:32;;;;;;;2.03;0.47;;;23.70;65.50;;;;;;5007210;28;20037;-83
2022/07/16 11:13:58;;;;;;;1.52;0.25;;;23.50;64.40;;;;;;4998014;28;20077;-82
2022/07/16 11:16:25;;;;;;;3.22;0.20;;;22.90;65.90;;;;;;4997066;28;20042;-82
2022/07/16 11:18:50;;;;;;;2.35;0.20;;;22.60;67.70;;;;;;4994642;28;20038;-81
2022/07/16 11:21:16;;;;;;;2.08;0.15;;;22.50;67.80;;;;;;4988815;28;20081;-81
2022/07/16 11:24:05;;;;;;;9.30;6.07;;;22.50;67.70;;;;;;4999433;28;20088;-83
2022/07/16 11:26:31;;;;;;;15.45;10.52;;;22.60;70.30;;;;;;5006314;28;20046;-82
2022/07/16 11:29:03;;;;;;;4.32;0.60;;;23.00;69.40;;;;;;5002067;28;20120;-80
2022/07/16 11:31:35;;;;;;;2.63;0.63;;;23.10;65.10;;;;;;5015776;28;20164;-82
2022/07/16 11:34:09;;;;;;;5.32;2.53;;;22.60;67.00;;;;;;5004236;28;20042;-82
2022/07/16 11:36:37;;;;;;;37.00;21.42;;;22.60;66.70;;;;;;5007527;28;20045;-81
2022/07/16 11:39:11;;;;;;;9.40;7.53;;;22.70;66.70;;;;;;5002469;28;20041;-82
2022/07/16 11:41:38;;;;;;;1.77;0.30;;;23.00;63.90;;;;;;5000597;28;20046;-83
2022/07/16 11:44:16;;;;;;;7.93;4.97;;;23.50;64.40;;;;;;4971673;28;20353;-82
2022/07/16 11:47:07;;;;;;;2.13;0.32;;;24.00;61.80;;;;;;4982152;28;20070;-82
2022/07/16 11:49:34;;;;;;;1.33;0.20;;;23.90;63.50;;;;;;4997076;28;20159;-81
2022/07/16 11:52:27;;;;;;;2.30;0.35;;;23.90;64.20;;;;;;4993916;28;20416;-81
2022/07/16 11:54:57;;;;;;;1.08;0.30;;;23.40;64.20;;;;;;5001461;28;20042;-81
2022/07/16 11:57:23;;;;;;;1.42;0.40;;;22.90;64.80;;;;;;4999641;28;20038;-81
2022/07/16 11:59:52;;;;;;;0.95;0.10;;;23.00;66.50;;;;;;4994795;28;20358;-81
2022/07/16 12:02:22;;;;;;;0.82;0.15;;;23.20;64.90;;;;;;4986659;28;20080;-82
2022/07/16 12:04:59;;;;;;;2.47;0.30;;;23.70;63.40;;;;;;5011810;28;20482;-82
2022/07/16 12:07:28;;;;;;;2.28;0.22;;;24.00;63.90;;;;;;5002288;28;20065;-83
2022/07/16 12:09:56;;;;;;;1.35;0.10;;;24.60;61.50;;;;;;5003142;28;20049;-82
2022/07/16 12:12:28;;;;;;;1.60;0.20;;;25.10;61.10;;;;;;5007591;28;20057;-82
2022/07/16 12:15:15;;;;;;;0.95;0.20;;;25.00;60.70;;;;;;4989488;28;20216;-82
2022/07/16 12:17:43;;;;;;;3.63;0.60;;;24.60;62.10;;;;;;5005326;28;20101;-81
2022/07/16 12:20:09;;;;;;;2.15;0.20;;;24.10;63.90;;;;;;4989166;28;20049;-82
2022/07/16 12:22:56;;;;;;;2.05;0.17;;;24.00;64.30;;;;;;4988342;28;20050;-82
2022/07/16 12:25:23;;;;;;;2.83;0.95;;;23.80;62.70;;;;;;4995453;28;20049;-82
2022/07/16 12:27:53;;;;;;;2.35;0.25;;;23.20;63.80;;;;;;5019108;28;20072;-83
2022/07/16 12:30:27;;;;;;;5.00;0.20;;;23.00;65.50;;;;;;5012545;28;20418;-83
2022/07/16 12:32:53;;;;;;;2.05;0.50;;;23.50;65.10;;;;;;4997087;28;20042;-81
2022/07/16 12:35:38;;;;;;;3.25;0.57;;;24.00;64.20;;;;;;4996103;28;20086;-82
2022/07/16 12:38:03;;;;;;;3.22;0.47;;;24.20;63.20;;;;;;5002112;28;20464;-82
2022/07/16 12:40:30;;;;;;;2.47;0.70;;;24.60;62.40;;;;;;4995573;28;20049;-81
2022/07/16 12:42:55;;;;;;;3.28;0.50;;;24.80;62.90;;;;;;5001946;28;20120;-82
2022/07/16 12:45:21;;;;;;;6.20;1.23;;;24.90;61.30;;;;;;5002025;28;20077;-83
2022/07/16 12:47:46;;;;;;;30.27;10.02;;;24.80;61.00;;;;;;5001689;28;20149;-82
2022/07/16 12:50:13;;;;;;;3.35;0.38;;;25.00;62.10;;;;;;4988023;28;20112;-82
2022/07/16 12:52:38;;;;;;;2.55;0.30;;;25.10;59.20;;;;;;4981385;28;20054;-82
2022/07/16 13:00:35;;;;;;;4.03;0.30;;;24.10;60.00;;;;;;5008983;28;20041;-83
2022/07/16 13:03:03;;;;;;;2.17;0.30;;;24.10;60.80;;;;;;4999824;28;20042;-82